sensor_id;sensor_type;location;lat;lon;timestamp;temperature;humidity
4487;DHT22;2256;48.740;9.106;2022-09-02T00:00:20;13.20;99.90
4487;DHT22;2256;48.740;9.106;2022-09-02T00:02:48;13.20;99.90
4487;DHT22;2256;48.740;9.106;2022-09-02T00:05:16;13.20;99.90
4487;DHT22;2256;48.740;9.106;2022-09-02T00:07:44;13.10;99.90
4487;DHT22;2256;48.740;9.106;2022-09-02T00:10:11;13.20;99.90
4487;DHT22;2256;48.740;9.106;2022-09-02T00:12:38;13.20;99.90
4487;DHT22;2256;48.740;9.106;2022-09-02T00:15:05;13.20;99.90
4487;DHT22;2256;48.740;9.106;2022-09-02T00:17:32;13.20;99.90
4487;DHT22;2256;48.740;9.106;2022-09-02T00:19:59;13.20;99.90
4487;DHT22;2256;48.740;9.106;2022-09-02T00:22:27;13.20;99.90
4487;DHT22;2256;48.740;9.106;2022-09-02T00:24:54;13.20;99.90
4487;DHT22;2256;48.740;9.106;2022-09-02T00:27:20;13.20;99.90
4487;DHT22;2256;48.740;9.106;2022-09-02T00:29:47;13.10;99.90
4487;DHT22;2256;48.740;9.106;2022-09-02T00:32:14;13.10;99.90
4487;DHT22;2256;48.740;9.106;2022-09-02T00:34:41;13.10;99.90
4487;DHT22;2256;48.740;9.106;2022-09-02T00:37:08;13.20;99.90
4487;DHT22;2256;48.740;9.106;2022-09-02T00:39:36;13.20;99.90
4487;DHT22;2256;48.740;9.106;2022-09-02T00:42:03;13.10;99.90
4487;DHT22;2256;48.740;9.106;2022-09-02T00:44:31;13.10;99.90
4487;DHT22;2256;48.740;9.106;2022-09-02T00:46:59;13.10;99.90
4487;DHT22;2256;48.740;9.106;2022-09-02T00:49:27;13.00;99.90
4487;DHT22;2256;48.740;9.106;2022-09-02T00:51:58;13.00;99.90
4487;DHT22;2256;48.740;9.106;2022-09-02T00:54:27;12.90;99.90
4487;DHT22;2256;48.740;9.106;2022-09-02T00:56:57;13.00;99.90
4487;DHT22;2256;48.740;9.106;2022-09-02T00:59:31;12.90;99.90
4487;DHT22;2256;48.740;9.106;2022-09-02T01:02:03;12.90;99.90
4487;DHT22;2256;48.740;9.106;2022-09-02T01:04:34;12.80;99.90
4487;DHT22;2256;48.740;9.106;2022-09-02T01:07:01;12.80;99.90
4487;DHT22;2256;48.740;9.106;2022-09-02T01:09:30;12.80;99.90
4487;DHT22;2256;48.740;9.106;2022-09-02T01:11:59;12.80;99.90
4487;DHT22;2256;48.740;9.106;2022-09-02T01:14:28;12.80;99.90
4487;DHT22;2256;48.740;9.106;2022-09-02T01:16:57;12.80;99.90
4487;DHT22;2256;48.740;9.106;2022-09-02T01:19:28;12.70;99.90
4487;DHT22;2256;48.740;9.106;2022-09-02T01:21:58;12.70;99.90
4487;DHT22;2256;48.740;9.106;2022-09-02T01:24:28;12.70;99.90
4487;DHT22;2256;48.740;9.106;2022-09-02T01:26:57;12.70;99.90
4487;DHT22;2256;48.740;9.106;2022-09-02T01:29:26;12.70;99.90
4487;DHT22;2256;48.740;9.106;2022-09-02T01:31:53;12.70;99.90
4487;DHT22;2256;48.740;9.106;2022-09-02T01:34:20;12.70;99.90
4487;DHT22;2256;48.740;9.106;2022-09-02T01:36:47;12.70;99.90
4487;DHT22;2256;48.740;9.106;2022-09-02T01:39:15;12.70;99.90
4487;DHT22;2256;48.740;9.106;2022-09-02T01:41:42;12.70;99.90
4487;DHT22;2256;48.740;9.106;2022-09-02T01:44:09;12.70;99.90
4487;DHT22;2256;48.740;9.106;2022-09-02T01:46:36;12.60;99.90
4487;DHT22;2256;48.740;9.106;2022-09-02T01:49:03;12.60;99.90
4487;DHT22;2256;48.740;9.106;2022-09-02T01:51:30;12.50;99.90
4487;DHT22;2256;48.740;9.106;2022-09-02T01:53:57;12.50;99.90
4487;DHT22;2256;48.740;9.106;2022-09-02T01:56:26;12.60;99.90
4487;DHT22;2256;48.740;9.106;2022-09-02T01:58:53;12.70;99.90
4487;DHT22;2256;48.740;9.106;2022-09-02T02:01:20;12.60;99.90
4487;DHT22;2256;48.740;9.106;2022-09-02T02:03:47;12.50;99.90
4487;DHT22;2256;48.740;9.106;2022-09-02T02:06:15;12.60;99.90
4487;DHT22;2256;48.740;9.106;2022-09-02T02:08:43;12.60;99.90
4487;DHT22;2256;48.740;9.106;2022-09-02T02:11:10;12.50;99.90
4487;DHT22;2256;48.740;9.106;2022-09-02T02:13:38;12.50;99.90
4487;DHT22;2256;48.740;9.106;2022-09-02T02:16:05;12.40;99.90
4487;DHT22;2256;48.740;9.106;2022-09-02T02:18:32;12.40;99.90
4487;DHT22;2256;48.740;9.106;2022-09-02T02:20:59;12.40;99.90
4487;DHT22;2256;48.740;9.106;2022-09-02T02:23:26;12.40;99.90
4487;DHT22;2256;48.740;9.106;2022-09-02T02:25:53;12.40;99.90
4487;DHT22;2256;48.740;9.106;2022-09-02T02:28:20;12.40;99.90
4487;DHT22;2256;48.740;9.106;2022-09-02T02:30:48;12.40;99.90
4487;DHT22;2256;48.740;9.106;2022-09-02T02:33:15;12.40;99.90
4487;DHT22;2256;48.740;9.106;2022-09-02T02:35:42;12.30;99.90
4487;DHT22;2256;48.740;9.106;2022-09-02T02:38:09;12.40;99.90
4487;DHT22;2256;48.740;9.106;2022-09-02T02:40:36;12.30;99.90
4487;DHT22;2256;48.740;9.106;2022-09-02T02:43:04;12.30;99.90
4487;DHT22;2256;48.740;9.106;2022-09-02T02:45:31;12.30;99.90
4487;DHT22;2256;48.740;9.106;2022-09-02T02:47:59;12.20;99.90
4487;DHT22;2256;48.740;9.106;2022-09-02T02:50:26;12.10;99.90
4487;DHT22;2256;48.740;9.106;2022-09-02T02:52:53;12.20;99.90
4487;DHT22;2256;48.740;9.106;2022-09-02T02:55:21;12.10;99.90
4487;DHT22;2256;48.740;9.106;2022-09-02T02:57:49;12.10;99.90
4487;DHT22;2256;48.740;9.106;2022-09-02T03:00:17;12.10;99.90
4487;DHT22;2256;48.740;9.106;2022-09-02T03:02:45;12.10;99.90
4487;DHT22;2256;48.740;9.106;2022-09-02T03:05:13;12.10;99.90
4487;DHT22;2256;48.740;9.106;2022-09-02T03:07:40;12.20;99.90
4487;DHT22;2256;48.740;9.106;2022-09-02T03:10:09;12.20;99.90
4487;DHT22;2256;48.740;9.106;2022-09-02T03:12:36;12.10;99.90
4487;DHT22;2256;48.740;9.106;2022-09-02T03:15:05;12.10;99.90
4487;DHT22;2256;48.740;9.106;2022-09-02T03:17:32;12.10;99.90
4487;DHT22;2256;48.740;9.106;2022-09-02T03:19:59;12.10;99.90
4487;DHT22;2256;48.740;9.106;2022-09-02T03:22:28;12.00;99.90
4487;DHT22;2256;48.740;9.106;2022-09-02T03:24:55;12.00;99.90
4487;DHT22;2256;48.740;9.106;2022-09-02T03:27:22;11.90;99.90
4487;DHT22;2256;48.740;9.106;2022-09-02T03:29:49;11.90;99.90
4487;DHT22;2256;48.740;9.106;2022-09-02T03:32:15;11.90;99.90
4487;DHT22;2256;48.740;9.106;2022-09-02T03:34:43;11.80;99.90
4487;DHT22;2256;48.740;9.106;2022-09-02T03:37:10;11.90;99.90
4487;DHT22;2256;48.740;9.106;2022-09-02T03:39:38;11.80;99.90
4487;DHT22;2256;48.740;9.106;2022-09-02T03:42:06;11.90;99.90
4487;DHT22;2256;48.740;9.106;2022-09-02T03:44:32;11.80;99.90
4487;DHT22;2256;48.740;9.106;2022-09-02T03:46:59;11.80;99.90
4487;DHT22;2256;48.740;9.106;2022-09-02T03:49:26;11.80;99.90
4487;DHT22;2256;48.740;9.106;2022-09-02T03:51:53;11.70;99.90
4487;DHT22;2256;48.740;9.106;2022-09-02T03:54:20;11.70;99.90
4487;DHT22;2256;48.740;9.106;2022-09-02T03:56:49;11.60;99.90
4487;DHT22;2256;48.740;9.106;2022-09-02T03:59:16;11.60;99.90
4487;DHT22;2256;48.740;9.106;2022-09-02T04:01:43;11.60;99.90
4487;DHT22;2256;48.740;9.106;2022-09-02T04:04:10;11.60;99.90
4487;DHT22;2256;48.740;9.106;2022-09-02T04:06:37;11.70;99.90
4487;DHT22;2256;48.740;9.106;2022-09-02T04:09:04;11.70;99.90
4487;DHT22;2256;48.740;9.106;2022-09-02T04:11:31;11.60;99.90
4487;DHT22;2256;48.740;9.106;2022-09-02T04:14:00;11.50;99.90
4487;DHT22;2256;48.740;9.106;2022-09-02T04:23:11;11.50;99.90
4487;DHT22;2256;48.740;9.106;2022-09-02T04:25:39;11.50;99.90
4487;DHT22;2256;48.740;9.106;2022-09-02T04:28:06;11.50;99.90
4487;DHT22;2256;48.740;9.106;2022-09-02T04:30:37;11.50;99.90
4487;DHT22;2256;48.740;9.106;2022-09-02T04:33:03;11.50;99.90
4487;DHT22;2256;48.740;9.106;2022-09-02T04:35:30;11.50;99.90
4487;DHT22;2256;48.740;9.106;2022-09-02T04:37:57;11.50;99.90
4487;DHT22;2256;48.740;9.106;2022-09-02T04:40:24;11.50;99.90
4487;DHT22;2256;48.740;9.106;2022-09-02T04:42:51;11.50;99.90
4487;DHT22;2256;48.740;9.106;2022-09-02T04:45:18;11.50;99.90
4487;DHT22;2256;48.740;9.106;2022-09-02T04:47:46;11.50;99.90
4487;DHT22;2256;48.740;9.106;2022-09-02T04:50:13;11.50;99.90
4487;DHT22;2256;48.740;9.106;2022-09-02T04:52:40;11.40;99.90
4487;DHT22;2256;48.740;9.106;2022-09-02T04:55:08;11.30;99.90
4487;DHT22;2256;48.740;9.106;2022-09-02T04:57:35;11.50;99.90
4487;DHT22;2256;48.740;9.106;2022-09-02T05:00:03;11.50;99.90
4487;DHT22;2256;48.740;9.106;2022-09-02T05:02:30;11.60;99.90
4487;DHT22;2256;48.740;9.106;2022-09-02T05:04:58;11.60;99.90
4487;DHT22;2256;48.740;9.106;2022-09-02T05:07:25;11.80;99.90
4487;DHT22;2256;48.740;9.106;2022-09-02T05:09:55;12.00;99.90
4487;DHT22;2256;48.740;9.106;2022-09-02T05:12:22;12.10;99.90
4487;DHT22;2256;48.740;9.106;2022-09-02T05:14:49;12.30;99.90
4487;DHT22;2256;48.740;9.106;2022-09-02T05:17:16;12.40;99.90
4487;DHT22;2256;48.740;9.106;2022-09-02T05:19:43;12.50;99.90
4487;DHT22;2256;48.740;9.106;2022-09-02T05:22:11;12.60;99.90
4487;DHT22;2256;48.740;9.106;2022-09-02T05:24:39;12.70;99.90
4487;DHT22;2256;48.740;9.106;2022-09-02T05:27:07;12.70;99.90
4487;DHT22;2256;48.740;9.106;2022-09-02T05:29:34;12.90;99.90
4487;DHT22;2256;48.740;9.106;2022-09-02T05:32:01;12.80;99.90
4487;DHT22;2256;48.740;9.106;2022-09-02T05:34:29;12.90;99.90
4487;DHT22;2256;48.740;9.106;2022-09-02T05:36:57;12.90;99.90
4487;DHT22;2256;48.740;9.106;2022-09-02T05:39:26;13.10;99.90
4487;DHT22;2256;48.740;9.106;2022-09-02T05:41:52;13.30;99.90
4487;DHT22;2256;48.740;9.106;2022-09-02T05:44:19;13.30;99.90
4487;DHT22;2256;48.740;9.106;2022-09-02T05:46:46;13.30;99.90
4487;DHT22;2256;48.740;9.106;2022-09-02T05:49:13;13.40;99.90
4487;DHT22;2256;48.740;9.106;2022-09-02T05:51:44;13.50;99.90
4487;DHT22;2256;48.740;9.106;2022-09-02T05:54:13;13.50;99.90
4487;DHT22;2256;48.740;9.106;2022-09-02T05:56:43;13.60;99.90
4487;DHT22;2256;48.740;9.106;2022-09-02T05:59:10;13.70;99.90
4487;DHT22;2256;48.740;9.106;2022-09-02T06:01:37;13.70;99.90
4487;DHT22;2256;48.740;9.106;2022-09-02T06:04:05;13.80;99.90
4487;DHT22;2256;48.740;9.106;2022-09-02T06:06:32;13.70;99.90
4487;DHT22;2256;48.740;9.106;2022-09-02T06:08:59;13.60;99.90
4487;DHT22;2256;48.740;9.106;2022-09-02T06:11:26;13.80;99.90
4487;DHT22;2256;48.740;9.106;2022-09-02T06:13:55;13.80;99.90
4487;DHT22;2256;48.740;9.106;2022-09-02T06:16:22;13.90;99.90
4487;DHT22;2256;48.740;9.106;2022-09-02T06:18:49;14.20;99.90
4487;DHT22;2256;48.740;9.106;2022-09-02T06:21:17;14.40;99.90
4487;DHT22;2256;48.740;9.106;2022-09-02T06:23:45;14.40;99.90
4487;DHT22;2256;48.740;9.106;2022-09-02T06:26:13;14.60;99.90
4487;DHT22;2256;48.740;9.106;2022-09-02T06:28:40;14.90;99.90
4487;DHT22;2256;48.740;9.106;2022-09-02T06:31:11;16.00;99.90
4487;DHT22;2256;48.740;9.106;2022-09-02T06:33:39;17.80;99.90
4487;DHT22;2256;48.740;9.106;2022-09-02T06:36:07;19.60;99.90
4487;DHT22;2256;48.740;9.106;2022-09-02T06:38:36;21.10;99.90
4487;DHT22;2256;48.740;9.106;2022-09-02T06:41:03;22.40;98.10
4487;DHT22;2256;48.740;9.106;2022-09-02T06:43:30;23.60;95.40
4487;DHT22;2256;48.740;9.106;2022-09-02T06:45:57;24.70;93.10
4487;DHT22;2256;48.740;9.106;2022-09-02T06:48:25;25.20;92.00
4487;DHT22;2256;48.740;9.106;2022-09-02T06:50:52;25.70;90.70
4487;DHT22;2256;48.740;9.106;2022-09-02T06:53:19;25.70;89.60
4487;DHT22;2256;48.740;9.106;2022-09-02T06:55:47;25.50;89.70
4487;DHT22;2256;48.740;9.106;2022-09-02T06:58:14;25.30;88.90
4487;DHT22;2256;48.740;9.106;2022-09-02T07:00:42;25.00;88.80
4487;DHT22;2256;48.740;9.106;2022-09-02T07:03:10;24.80;89.90
4487;DHT22;2256;48.740;9.106;2022-09-02T07:06:04;25.20;88.70
4487;DHT22;2256;48.740;9.106;2022-09-02T07:08:34;24.70;89.50
4487;DHT22;2256;48.740;9.106;2022-09-02T07:11:02;24.60;90.10
4487;DHT22;2256;48.740;9.106;2022-09-02T07:13:29;25.20;88.80
4487;DHT22;2256;48.740;9.106;2022-09-02T07:15:55;25.40;88.00
4487;DHT22;2256;48.740;9.106;2022-09-02T07:18:22;25.30;88.60
4487;DHT22;2256;48.740;9.106;2022-09-02T07:20:49;25.90;87.40
4487;DHT22;2256;48.740;9.106;2022-09-02T07:23:18;26.40;84.70
4487;DHT22;2256;48.740;9.106;2022-09-02T07:25:44;26.20;84.90
4487;DHT22;2256;48.740;9.106;2022-09-02T07:28:11;26.10;84.20
4487;DHT22;2256;48.740;9.106;2022-09-02T07:30:40;25.60;85.10
4487;DHT22;2256;48.740;9.106;2022-09-02T07:33:08;25.00;85.70
4487;DHT22;2256;48.740;9.106;2022-09-02T07:35:38;24.90;87.60
4487;DHT22;2256;48.740;9.106;2022-09-02T07:38:05;24.40;88.40
4487;DHT22;2256;48.740;9.106;2022-09-02T07:40:34;24.70;87.70
4487;DHT22;2256;48.740;9.106;2022-09-02T07:43:01;24.70;87.80
4487;DHT22;2256;48.740;9.106;2022-09-02T07:45:29;24.60;88.40
4487;DHT22;2256;48.740;9.106;2022-09-02T07:47:56;24.90;87.40
4487;DHT22;2256;48.740;9.106;2022-09-02T07:50:23;25.00;87.00
4487;DHT22;2256;48.740;9.106;2022-09-02T07:52:52;25.40;87.00
4487;DHT22;2256;48.740;9.106;2022-09-02T07:55:19;25.50;85.80
4487;DHT22;2256;48.740;9.106;2022-09-02T07:57:49;25.70;85.40
4487;DHT22;2256;48.740;9.106;2022-09-02T08:00:17;25.80;85.40
4487;DHT22;2256;48.740;9.106;2022-09-02T08:02:45;25.90;84.00
4487;DHT22;2256;48.740;9.106;2022-09-02T08:05:14;25.30;84.70
4487;DHT22;2256;48.740;9.106;2022-09-02T08:07:41;25.20;85.00
4487;DHT22;2256;48.740;9.106;2022-09-02T08:10:09;25.50;84.60
4487;DHT22;2256;48.740;9.106;2022-09-02T08:12:38;24.60;85.80
4487;DHT22;2256;48.740;9.106;2022-09-02T08:15:07;24.50;86.60
4487;DHT22;2256;48.740;9.106;2022-09-02T08:17:35;24.80;86.00
4487;DHT22;2256;48.740;9.106;2022-09-02T08:20:05;24.40;86.30
4487;DHT22;2256;48.740;9.106;2022-09-02T08:22:33;23.50;87.50
4487;DHT22;2256;48.740;9.106;2022-09-02T08:24:59;24.10;87.40
4487;DHT22;2256;48.740;9.106;2022-09-02T08:27:26;24.80;86.10
4487;DHT22;2256;48.740;9.106;2022-09-02T08:29:53;24.60;85.80
4487;DHT22;2256;48.740;9.106;2022-09-02T08:32:21;24.50;85.50
4487;DHT22;2256;48.740;9.106;2022-09-02T08:34:48;24.30;85.20
4487;DHT22;2256;48.740;9.106;2022-09-02T08:37:15;24.20;86.00
4487;DHT22;2256;48.740;9.106;2022-09-02T08:39:43;23.80;86.40
4487;DHT22;2256;48.740;9.106;2022-09-02T08:42:16;23.40;86.40
4487;DHT22;2256;48.740;9.106;2022-09-02T08:44:45;23.00;87.10
4487;DHT22;2256;48.740;9.106;2022-09-02T08:47:16;23.80;87.10
4487;DHT22;2256;48.740;9.106;2022-09-02T08:49:49;24.20;85.30
4487;DHT22;2256;48.740;9.106;2022-09-02T08:52:23;24.20;85.70
4487;DHT22;2256;48.740;9.106;2022-09-02T08:54:52;23.50;86.70
4487;DHT22;2256;48.740;9.106;2022-09-02T08:57:20;23.00;87.60
4487;DHT22;2256;48.740;9.106;2022-09-02T08:59:51;23.00;87.50
4487;DHT22;2256;48.740;9.106;2022-09-02T09:02:23;23.00;86.10
4487;DHT22;2256;48.740;9.106;2022-09-02T09:05:06;23.00;87.40
4487;DHT22;2256;48.740;9.106;2022-09-02T09:07:37;23.50;87.30
4487;DHT22;2256;48.740;9.106;2022-09-02T09:10:15;23.70;85.00
4487;DHT22;2256;48.740;9.106;2022-09-02T09:13:08;24.10;84.70
4487;DHT22;2256;48.740;9.106;2022-09-02T09:15:46;24.30;83.40
4487;DHT22;2256;48.740;9.106;2022-09-02T09:18:19;24.10;84.80
4487;DHT22;2256;48.740;9.106;2022-09-02T09:20:49;24.70;84.30
4487;DHT22;2256;48.740;9.106;2022-09-02T09:23:26;24.00;83.90
4487;DHT22;2256;48.740;9.106;2022-09-02T09:26:03;23.10;86.00
4487;DHT22;2256;48.740;9.106;2022-09-02T09:28:30;23.60;86.50
4487;DHT22;2256;48.740;9.106;2022-09-02T09:30:59;24.80;84.50
4487;DHT22;2256;48.740;9.106;2022-09-02T09:33:26;25.10;82.10
4487;DHT22;2256;48.740;9.106;2022-09-02T09:35:54;24.30;83.60
4487;DHT22;2256;48.740;9.106;2022-09-02T09:38:30;24.60;82.40
4487;DHT22;2256;48.740;9.106;2022-09-02T09:41:13;25.00;83.30
4487;DHT22;2256;48.740;9.106;2022-09-02T09:43:40;25.30;81.40
4487;DHT22;2256;48.740;9.106;2022-09-02T09:46:25;24.70;84.00
4487;DHT22;2256;48.740;9.106;2022-09-02T09:48:52;25.20;80.70
4487;DHT22;2256;48.740;9.106;2022-09-02T09:51:21;25.00;81.50
4487;DHT22;2256;48.740;9.106;2022-09-02T09:53:48;25.00;81.70
4487;DHT22;2256;48.740;9.106;2022-09-02T09:56:29;23.90;82.80
4487;DHT22;2256;48.740;9.106;2022-09-02T09:58:57;23.90;82.60
4487;DHT22;2256;48.740;9.106;2022-09-02T10:01:27;24.20;83.30
4487;DHT22;2256;48.740;9.106;2022-09-02T10:03:55;23.80;82.30
4487;DHT22;2256;48.740;9.106;2022-09-02T10:06:36;23.70;82.20
4487;DHT22;2256;48.740;9.106;2022-09-02T10:09:05;24.00;81.50
4487;DHT22;2256;48.740;9.106;2022-09-02T10:11:33;24.00;81.20
4487;DHT22;2256;48.740;9.106;2022-09-02T10:14:02;23.70;82.20
4487;DHT22;2256;48.740;9.106;2022-09-02T10:16:41;23.30;81.70
4487;DHT22;2256;48.740;9.106;2022-09-02T10:19:19;22.50;82.70
4487;DHT22;2256;48.740;9.106;2022-09-02T10:22:04;22.40;84.70
4487;DHT22;2256;48.740;9.106;2022-09-02T10:24:48;22.20;83.50
4487;DHT22;2256;48.740;9.106;2022-09-02T10:27:25;21.80;84.00
4487;DHT22;2256;48.740;9.106;2022-09-02T10:30:02;21.60;84.30
4487;DHT22;2256;48.740;9.106;2022-09-02T10:32:58;21.60;85.10
4487;DHT22;2256;48.740;9.106;2022-09-02T10:35:33;21.70;84.20
4487;DHT22;2256;48.740;9.106;2022-09-02T10:38:13;21.70;83.50
4487;DHT22;2256;48.740;9.106;2022-09-02T10:40:44;21.70;82.60
4487;DHT22;2256;48.740;9.106;2022-09-02T10:43:26;21.70;81.90
4487;DHT22;2256;48.740;9.106;2022-09-02T10:45:58;21.70;81.50
4487;DHT22;2256;48.740;9.106;2022-09-02T10:48:36;21.70;81.60
4487;DHT22;2256;48.740;9.106;2022-09-02T10:51:12;21.80;81.60
4487;DHT22;2256;48.740;9.106;2022-09-02T10:53:50;21.80;82.60
4487;DHT22;2256;48.740;9.106;2022-09-02T10:56:24;21.80;81.10
4487;DHT22;2256;48.740;9.106;2022-09-02T10:58:56;21.80;82.30
4487;DHT22;2256;48.740;9.106;2022-09-02T11:01:30;21.80;81.20
4487;DHT22;2256;48.740;9.106;2022-09-02T11:04:04;22.10;81.30
4487;DHT22;2256;48.740;9.106;2022-09-02T11:06:36;22.40;81.10
4487;DHT22;2256;48.740;9.106;2022-09-02T11:09:10;22.50;79.70
4487;DHT22;2256;48.740;9.106;2022-09-02T11:11:40;22.70;79.40
4487;DHT22;2256;48.740;9.106;2022-09-02T11:14:16;22.80;80.70
4487;DHT22;2256;48.740;9.106;2022-09-02T11:16:49;23.00;79.90
4487;DHT22;2256;48.740;9.106;2022-09-02T11:19:22;23.10;80.00
4487;DHT22;2256;48.740;9.106;2022-09-02T11:21:57;23.30;78.00
4487;DHT22;2256;48.740;9.106;2022-09-02T11:24:32;23.00;77.50
4487;DHT22;2256;48.740;9.106;2022-09-02T11:27:04;22.60;77.60
4487;DHT22;2256;48.740;9.106;2022-09-02T11:29:39;22.40;78.40
4487;DHT22;2256;48.740;9.106;2022-09-02T11:32:15;22.30;79.20
4487;DHT22;2256;48.740;9.106;2022-09-02T11:34:46;22.30;79.10
4487;DHT22;2256;48.740;9.106;2022-09-02T11:37:23;22.10;79.40
4487;DHT22;2256;48.740;9.106;2022-09-02T11:39:55;22.20;79.90
4487;DHT22;2256;48.740;9.106;2022-09-02T11:42:34;21.90;79.50
4487;DHT22;2256;48.740;9.106;2022-09-02T11:45:35;22.10;79.90
4487;DHT22;2256;48.740;9.106;2022-09-02T11:48:28;22.30;80.00
4487;DHT22;2256;48.740;9.106;2022-09-02T11:54:01;22.40;80.90
4487;DHT22;2256;48.740;9.106;2022-09-02T11:56:35;22.40;79.50
4487;DHT22;2256;48.740;9.106;2022-09-02T11:59:05;22.50;78.90
4487;DHT22;2256;48.740;9.106;2022-09-02T12:01:34;22.20;78.80
4487;DHT22;2256;48.740;9.106;2022-09-02T12:04:05;22.20;79.60
4487;DHT22;2256;48.740;9.106;2022-09-02T12:06:32;22.10;79.50
4487;DHT22;2256;48.740;9.106;2022-09-02T12:09:03;22.20;79.90
4487;DHT22;2256;48.740;9.106;2022-09-02T12:11:43;22.30;80.10
4487;DHT22;2256;48.740;9.106;2022-09-02T12:17:00;22.50;79.90
4487;DHT22;2256;48.740;9.106;2022-09-02T12:19:39;22.70;79.70
4487;DHT22;2256;48.740;9.106;2022-09-02T12:22:31;22.80;80.40
4487;DHT22;2256;48.740;9.106;2022-09-02T12:25:04;23.20;80.20
4487;DHT22;2256;48.740;9.106;2022-09-02T12:27:36;23.20;78.00
4487;DHT22;2256;48.740;9.106;2022-09-02T12:30:05;23.30;79.50
4487;DHT22;2256;48.740;9.106;2022-09-02T12:35:33;23.60;78.70
4487;DHT22;2256;48.740;9.106;2022-09-02T12:38:24;23.80;78.70
4487;DHT22;2256;48.740;9.106;2022-09-02T12:40:56;23.60;77.60
4487;DHT22;2256;48.740;9.106;2022-09-02T12:43:28;23.20;78.20
4487;DHT22;2256;48.740;9.106;2022-09-02T12:46:05;23.00;78.70
4487;DHT22;2256;48.740;9.106;2022-09-02T12:48:38;23.10;78.30
4487;DHT22;2256;48.740;9.106;2022-09-02T12:51:07;23.20;79.20
4487;DHT22;2256;48.740;9.106;2022-09-02T12:53:37;23.30;78.80
4487;DHT22;2256;48.740;9.106;2022-09-02T12:56:17;23.30;77.20
4487;DHT22;2256;48.740;9.106;2022-09-02T12:58:49;23.30;77.40
4487;DHT22;2256;48.740;9.106;2022-09-02T13:01:19;23.40;77.30
4487;DHT22;2256;48.740;9.106;2022-09-02T13:04:01;23.40;76.30
4487;DHT22;2256;48.740;9.106;2022-09-02T13:06:40;23.40;75.10
4487;DHT22;2256;48.740;9.106;2022-09-02T13:09:35;23.30;76.30
4487;DHT22;2256;48.740;9.106;2022-09-02T13:15:22;23.40;78.80
4487;DHT22;2256;48.740;9.106;2022-09-02T13:18:18;23.50;79.20
4487;DHT22;2256;48.740;9.106;2022-09-02T13:21:14;23.70;79.70
4487;DHT22;2256;48.740;9.106;2022-09-02T13:24:00;24.00;77.30
4487;DHT22;2256;48.740;9.106;2022-09-02T13:26:46;23.90;77.80
4487;DHT22;2256;48.740;9.106;2022-09-02T13:29:43;24.00;77.30
4487;DHT22;2256;48.740;9.106;2022-09-02T13:32:23;24.00;79.20
4487;DHT22;2256;48.740;9.106;2022-09-02T13:34:53;24.20;77.60
4487;DHT22;2256;48.740;9.106;2022-09-02T13:37:32;24.10;76.50
4487;DHT22;2256;48.740;9.106;2022-09-02T13:40:00;24.00;77.90
4487;DHT22;2256;48.740;9.106;2022-09-02T13:42:29;24.00;76.90
4487;DHT22;2256;48.740;9.106;2022-09-02T13:45:12;23.90;76.80
4487;DHT22;2256;48.740;9.106;2022-09-02T13:47:45;23.80;77.50
4487;DHT22;2256;48.740;9.106;2022-09-02T13:50:14;24.00;78.00
4487;DHT22;2256;48.740;9.106;2022-09-02T13:52:44;24.10;77.30
4487;DHT22;2256;48.740;9.106;2022-09-02T13:55:13;24.20;77.30
4487;DHT22;2256;48.740;9.106;2022-09-02T13:57:43;24.40;77.40
4487;DHT22;2256;48.740;9.106;2022-09-02T14:00:14;24.60;77.30
4487;DHT22;2256;48.740;9.106;2022-09-02T14:02:55;24.50;76.50
4487;DHT22;2256;48.740;9.106;2022-09-02T14:05:25;24.20;78.10
4487;DHT22;2256;48.740;9.106;2022-09-02T14:07:54;24.10;79.70
4487;DHT22;2256;48.740;9.106;2022-09-02T14:10:24;24.00;79.70
4487;DHT22;2256;48.740;9.106;2022-09-02T14:12:54;24.00;80.10
4487;DHT22;2256;48.740;9.106;2022-09-02T14:15:25;23.90;79.40
4487;DHT22;2256;48.740;9.106;2022-09-02T14:18:12;23.80;78.90
4487;DHT22;2256;48.740;9.106;2022-09-02T14:20:52;23.70;79.30
4487;DHT22;2256;48.740;9.106;2022-09-02T14:23:19;23.80;79.00
4487;DHT22;2256;48.740;9.106;2022-09-02T14:25:50;23.80;78.70
4487;DHT22;2256;48.740;9.106;2022-09-02T14:28:19;23.80;79.40
4487;DHT22;2256;48.740;9.106;2022-09-02T14:30:55;24.00;79.60
4487;DHT22;2256;48.740;9.106;2022-09-02T14:33:26;23.90;79.20
4487;DHT22;2256;48.740;9.106;2022-09-02T14:35:58;23.70;80.20
4487;DHT22;2256;48.740;9.106;2022-09-02T14:38:27;23.80;80.50
4487;DHT22;2256;48.740;9.106;2022-09-02T14:41:02;23.60;79.00
4487;DHT22;2256;48.740;9.106;2022-09-02T14:43:41;23.60;80.00
4487;DHT22;2256;48.740;9.106;2022-09-02T14:46:18;23.70;79.40
4487;DHT22;2256;48.740;9.106;2022-09-02T14:48:53;23.70;79.30
4487;DHT22;2256;48.740;9.106;2022-09-02T14:51:21;23.90;80.00
4487;DHT22;2256;48.740;9.106;2022-09-02T14:53:48;24.10;80.00
4487;DHT22;2256;48.740;9.106;2022-09-02T14:56:42;24.20;79.10
4487;DHT22;2256;48.740;9.106;2022-09-02T14:59:09;24.20;78.90
4487;DHT22;2256;48.740;9.106;2022-09-02T15:01:37;24.40;78.60
4487;DHT22;2256;48.740;9.106;2022-09-02T15:04:06;24.50;78.10
4487;DHT22;2256;48.740;9.106;2022-09-02T15:06:33;24.40;77.80
4487;DHT22;2256;48.740;9.106;2022-09-02T15:09:00;24.30;77.60
4487;DHT22;2256;48.740;9.106;2022-09-02T15:11:27;24.20;77.90
4487;DHT22;2256;48.740;9.106;2022-09-02T15:13:53;23.80;78.40
4487;DHT22;2256;48.740;9.106;2022-09-02T15:16:20;23.70;80.20
4487;DHT22;2256;48.740;9.106;2022-09-02T15:18:47;23.70;78.60
4487;DHT22;2256;48.740;9.106;2022-09-02T15:21:16;23.60;79.50
4487;DHT22;2256;48.740;9.106;2022-09-02T15:23:44;23.70;80.20
4487;DHT22;2256;48.740;9.106;2022-09-02T15:26:11;23.90;79.40
4487;DHT22;2256;48.740;9.106;2022-09-02T15:28:38;24.00;78.70
4487;DHT22;2256;48.740;9.106;2022-09-02T15:31:06;24.00;79.30
4487;DHT22;2256;48.740;9.106;2022-09-02T15:33:33;24.10;79.10
4487;DHT22;2256;48.740;9.106;2022-09-02T15:36:07;24.00;78.80
4487;DHT22;2256;48.740;9.106;2022-09-02T15:38:36;24.00;77.70
4487;DHT22;2256;48.740;9.106;2022-09-02T15:41:13;23.90;78.80
4487;DHT22;2256;48.740;9.106;2022-09-02T15:43:41;23.80;78.40
4487;DHT22;2256;48.740;9.106;2022-09-02T15:46:17;23.60;78.80
4487;DHT22;2256;48.740;9.106;2022-09-02T15:48:45;23.50;80.00
4487;DHT22;2256;48.740;9.106;2022-09-02T15:51:14;23.40;79.30
4487;DHT22;2256;48.740;9.106;2022-09-02T15:53:43;23.30;79.70
4487;DHT22;2256;48.740;9.106;2022-09-02T15:56:17;23.20;80.00
4487;DHT22;2256;48.740;9.106;2022-09-02T15:58:44;23.30;79.80
4487;DHT22;2256;48.740;9.106;2022-09-02T16:01:11;23.20;79.80
4487;DHT22;2256;48.740;9.106;2022-09-02T16:03:38;23.10;79.10
4487;DHT22;2256;48.740;9.106;2022-09-02T16:06:06;23.00;79.60
4487;DHT22;2256;48.740;9.106;2022-09-02T16:08:35;23.00;80.90
4487;DHT22;2256;48.740;9.106;2022-09-02T16:11:07;22.70;80.20
4487;DHT22;2256;48.740;9.106;2022-09-02T16:13:35;22.60;80.40
4487;DHT22;2256;48.740;9.106;2022-09-02T16:16:04;22.40;81.10
4487;DHT22;2256;48.740;9.106;2022-09-02T16:18:31;22.50;81.80
4487;DHT22;2256;48.740;9.106;2022-09-02T16:20:58;22.40;81.20
4487;DHT22;2256;48.740;9.106;2022-09-02T16:23:25;22.30;81.10
4487;DHT22;2256;48.740;9.106;2022-09-02T16:26:11;22.20;81.30
4487;DHT22;2256;48.740;9.106;2022-09-02T16:28:41;22.10;81.10
4487;DHT22;2256;48.740;9.106;2022-09-02T16:31:09;22.10;81.80
4487;DHT22;2256;48.740;9.106;2022-09-02T16:33:36;22.20;82.70
4487;DHT22;2256;48.740;9.106;2022-09-02T16:36:04;22.20;82.30
4487;DHT22;2256;48.740;9.106;2022-09-02T16:38:32;22.10;82.00
4487;DHT22;2256;48.740;9.106;2022-09-02T16:40:59;21.90;82.30